createdAt,value
2018-06-27T00:00:34.459Z,16.79
2018-06-27T00:01:15.118Z,16.69
2018-06-27T00:01:55.676Z,16.71
2018-06-27T00:02:36.237Z,16.75
2018-06-27T00:03:16.788Z,16.76
2018-06-27T00:03:57.356Z,16.74
2018-06-27T00:04:37.898Z,16.76
2018-06-27T00:05:18.481Z,16.66
2018-06-27T00:05:59.038Z,16.84
2018-06-27T00:06:39.569Z,16.74
2018-06-27T00:07:20.149Z,16.66
2018-06-27T00:08:00.700Z,16.69
2018-06-27T00:08:41.285Z,16.66
2018-06-27T00:09:21.888Z,16.69
2018-06-27T00:10:02.433Z,16.71
2018-06-27T00:10:42.959Z,16.66
2018-06-27T00:11:23.502Z,16.71
2018-06-27T00:12:04.097Z,16.69
2018-06-27T00:12:44.656Z,16.61
2018-06-27T00:13:25.207Z,16.74
2018-06-27T00:14:05.762Z,16.66
2018-06-27T00:14:46.340Z,16.66
2018-06-27T00:15:26.910Z,16.64
2018-06-27T00:16:07.523Z,16.69
2018-06-27T00:16:48.172Z,16.69
2018-06-27T00:17:28.843Z,16.61
2018-06-27T00:18:09.474Z,16.64
2018-06-27T00:18:50.024Z,16.64
2018-06-27T00:19:30.582Z,16.53
2018-06-27T00:20:11.113Z,16.53
2018-06-27T00:20:51.648Z,16.57
2018-06-27T00:21:33.188Z,16.58
2018-06-27T00:22:13.686Z,16.53
2018-06-27T00:22:54.233Z,16.56
2018-06-27T00:23:34.795Z,16.54
2018-06-27T00:24:15.317Z,16.53
2018-06-27T00:24:55.878Z,16.58
2018-06-27T00:25:36.382Z,16.54
2018-06-27T00:26:16.921Z,16.53
2018-06-27T00:26:57.478Z,16.56
2018-06-27T00:27:38.021Z,16.47
2018-06-27T00:28:18.558Z,16.51
2018-06-27T00:28:59.083Z,16.58
2018-06-27T00:29:39.641Z,16.51
2018-06-27T00:30:20.205Z,16.53
2018-06-27T00:31:00.755Z,16.49
2018-06-27T00:31:41.328Z,16.5
2018-06-27T00:32:21.963Z,16.49
2018-06-27T00:33:02.618Z,16.5
2018-06-27T00:33:43.181Z,16.53
2018-06-27T00:34:23.740Z,16.5
2018-06-27T00:35:04.302Z,16.46
2018-06-27T00:35:44.860Z,16.31
2018-06-27T00:36:25.421Z,16.41
2018-06-27T00:37:05.981Z,16.47
2018-06-27T00:37:46.545Z,16.46
2018-06-27T00:38:27.080Z,16.41
2018-06-27T00:39:07.637Z,16.41
2018-06-27T00:39:48.210Z,16.41
2018-06-27T00:40:28.789Z,16.42
2018-06-27T00:41:09.355Z,16.36
2018-06-27T00:41:49.927Z,16.32
2018-06-27T00:42:30.494Z,16.41
2018-06-27T00:43:11.078Z,16.33
2018-06-27T00:43:51.648Z,16.36
2018-06-27T00:44:32.216Z,16.33
2018-06-27T00:45:12.786Z,16.33
2018-06-27T00:45:53.357Z,16.28
2018-06-27T00:46:34.032Z,16.31
2018-06-27T00:47:17.510Z,16.33
2018-06-27T00:47:58.075Z,16.28
2018-06-27T00:48:38.639Z,16.29
2018-06-27T00:49:19.213Z,16.36
2018-06-27T00:49:59.865Z,16.26
2018-06-27T00:50:40.439Z,16.26
2018-06-27T00:51:20.998Z,16.23
2018-06-27T00:52:01.549Z,16.24
2018-06-27T00:52:42.120Z,16.32
2018-06-27T00:53:22.768Z,16.36
2018-06-27T00:54:03.365Z,16.24
2018-06-27T00:54:43.941Z,16.28
2018-06-27T00:55:24.617Z,16.23
2018-06-27T00:56:05.184Z,16.24
2018-06-27T00:56:45.767Z,16.24
2018-06-27T00:57:26.343Z,16.2
2018-06-27T00:58:07.113Z,16.17
2018-06-27T00:58:47.730Z,16.21
2018-06-27T00:59:28.320Z,16.16
2018-06-27T01:00:08.860Z,16.2
2018-06-27T01:00:49.414Z,16.21
2018-06-27T01:01:29.964Z,16.24
2018-06-27T01:02:10.530Z,16.17
2018-06-27T01:02:51.062Z,16.2
2018-06-27T01:03:31.707Z,16.23
2018-06-27T01:04:12.264Z,16.23
2018-06-27T01:04:52.826Z,16.21
2018-06-27T01:05:33.365Z,16.21
2018-06-27T01:06:13.985Z,16.23
2018-06-27T01:06:54.541Z,16.23
2018-06-27T01:07:35.099Z,16.2
2018-06-27T01:08:15.664Z,16.24
2018-06-27T01:08:56.232Z,16.23
2018-06-27T01:09:36.769Z,16.24
2018-06-27T01:10:17.337Z,16.21
2018-06-27T01:10:57.868Z,16.23
2018-06-27T01:11:38.601Z,16.24
2018-06-27T01:12:19.217Z,16.2
2018-06-27T01:12:59.833Z,16.23
2018-06-27T01:13:40.605Z,16.15
2018-06-27T01:14:21.201Z,16.1
2018-06-27T01:15:01.816Z,16.17
2018-06-27T01:15:42.323Z,16.13
2018-06-27T01:16:22.900Z,16.15
2018-06-27T01:17:03.504Z,16.13
2018-06-27T01:17:44.072Z,16.05
2018-06-27T01:18:24.635Z,16.13
2018-06-27T01:19:05.382Z,16.12
2018-06-27T01:19:45.793Z,16.08
2018-06-27T01:20:26.730Z,16.05
2018-06-27T01:21:07.168Z,16.09
2018-06-27T01:21:47.717Z,16.02
2018-06-27T01:22:28.266Z,16.1
2018-06-27T01:23:08.872Z,16.02
2018-06-27T01:23:49.412Z,16.01
2018-06-27T01:24:29.983Z,16.08
2018-06-27T01:25:10.564Z,16.04
2018-06-27T01:25:51.507Z,16.02
2018-06-27T01:26:31.946Z,15.97
2018-06-27T01:27:12.502Z,15.94
2018-06-27T01:27:53.050Z,15.97
2018-06-27T01:28:33.860Z,16
2018-06-27T01:29:14.555Z,15.97
2018-06-27T01:29:55.185Z,15.98
2018-06-27T01:30:35.741Z,15.95
2018-06-27T01:31:16.290Z,15.98
2018-06-27T01:31:56.934Z,15.95
2018-06-27T01:32:37.549Z,16.02
2018-06-27T01:33:18.113Z,16
2018-06-27T01:33:58.665Z,15.98
2018-06-27T01:34:39.187Z,15.95
2018-06-27T01:35:19.753Z,15.95
2018-06-27T01:36:00.361Z,15.94
2018-06-27T01:36:40.918Z,15.92
2018-06-27T01:37:21.574Z,15.86
2018-06-27T01:38:02.135Z,15.98
2018-06-27T01:38:42.774Z,15.9
2018-06-27T01:39:23.323Z,15.95
2018-06-27T01:40:03.879Z,15.94
2018-06-27T01:40:44.455Z,15.92
2018-06-27T01:41:25.010Z,15.86
2018-06-27T01:42:05.560Z,15.83
2018-06-27T01:42:46.096Z,15.95
2018-06-27T01:43:26.641Z,15.98
2018-06-27T01:44:07.203Z,15.98
2018-06-27T01:44:47.745Z,16.01
2018-06-27T01:45:28.318Z,15.94
2018-06-27T01:46:08.871Z,16.01
2018-06-27T01:46:49.439Z,15.92
2018-06-27T01:47:29.993Z,15.92
2018-06-27T01:48:10.540Z,15.98
2018-06-27T01:48:51.074Z,16
2018-06-27T01:49:31.635Z,16.01
2018-06-27T01:50:12.166Z,16.02
2018-06-27T01:50:52.721Z,16.02
2018-06-27T01:51:33.284Z,15.95
2018-06-27T01:52:13.841Z,15.98
2018-06-27T01:52:54.384Z,15.98
2018-06-27T01:53:34.950Z,15.92
2018-06-27T01:54:15.527Z,16.02
2018-06-27T01:54:56.091Z,16.01
2018-06-27T01:55:36.656Z,15.95
2018-06-27T01:56:17.212Z,15.97
2018-06-27T01:56:57.761Z,15.98
2018-06-27T01:57:38.321Z,15.86
2018-06-27T01:58:18.880Z,15.9
2018-06-27T01:58:59.433Z,15.97
2018-06-27T01:59:40.075Z,16.01
2018-06-27T02:00:20.638Z,15.9
2018-06-27T02:01:01.237Z,15.97
2018-06-27T02:01:41.889Z,15.97
2018-06-27T02:02:22.541Z,16
2018-06-27T02:03:03.196Z,15.94
2018-06-27T02:03:43.757Z,15.94
2018-06-27T02:04:24.397Z,15.95
2018-06-27T02:05:04.961Z,15.83
2018-06-27T02:05:45.558Z,15.98
2018-06-27T02:06:26.140Z,15.92
2018-06-27T02:07:06.715Z,15.95
2018-06-27T02:07:47.302Z,15.9
2018-06-27T02:08:27.896Z,15.9
2018-06-27T02:09:08.684Z,15.86
2018-06-27T02:09:49.264Z,15.86
2018-06-27T02:10:29.821Z,15.91
2018-06-27T02:11:10.463Z,15.92
2018-06-27T02:11:51.115Z,15.84
2018-06-27T02:12:31.845Z,15.83
2018-06-27T02:13:12.440Z,15.88
2018-06-27T02:13:53.070Z,15.73
2018-06-27T02:14:33.652Z,15.73
2018-06-27T02:15:14.298Z,15.83
2018-06-27T02:15:54.915Z,15.84
2018-06-27T02:16:35.526Z,15.86
2018-06-27T02:17:16.157Z,15.88
2018-06-27T02:17:56.769Z,15.88
2018-06-27T02:18:37.486Z,15.86
2018-06-27T02:19:18.031Z,15.82
2018-06-27T02:19:58.730Z,15.82
2018-06-27T02:20:39.355Z,15.73
2018-06-27T02:21:19.980Z,15.84
2018-06-27T02:22:00.705Z,15.84
2018-06-27T02:22:41.452Z,15.8
2018-06-27T02:23:22.085Z,15.84
2018-06-27T02:24:02.937Z,15.76
2018-06-27T02:24:43.600Z,15.8
2018-06-27T02:25:24.250Z,15.86
2018-06-27T02:26:04.950Z,15.83
2018-06-27T02:26:45.514Z,15.91
2018-06-27T02:27:26.218Z,15.84
2018-06-27T02:28:06.763Z,15.86
2018-06-27T02:28:47.571Z,15.83
2018-06-27T02:29:28.235Z,15.77
2018-06-27T02:30:08.892Z,15.82
2018-06-27T02:30:49.537Z,15.84
2018-06-27T02:31:30.135Z,15.73
2018-06-27T02:32:10.685Z,15.83
2018-06-27T02:32:51.448Z,15.86
2018-06-27T02:33:32.054Z,15.84
2018-06-27T02:34:12.653Z,15.82
2018-06-27T02:34:53.252Z,15.86
2018-06-27T02:35:33.822Z,15.88
2018-06-27T02:36:14.532Z,15.8
2018-06-27T02:36:55.185Z,15.83
2018-06-27T02:37:35.850Z,15.82
2018-06-27T02:38:16.397Z,15.86
2018-06-27T02:38:57.054Z,15.8
2018-06-27T02:39:37.682Z,15.79
2018-06-27T02:40:18.331Z,15.84
2018-06-27T02:40:58.960Z,15.88
2018-06-27T02:41:39.611Z,15.91
2018-06-27T02:42:20.233Z,15.83
2018-06-27T02:43:00.885Z,15.84
2018-06-27T02:43:41.550Z,15.83
2018-06-27T02:44:22.215Z,15.84
2018-06-27T02:45:02.937Z,15.83
2018-06-27T02:45:43.511Z,15.82
2018-06-27T02:46:24.118Z,15.84
2018-06-27T02:47:04.742Z,15.79
2018-06-27T02:47:45.529Z,15.83
2018-06-27T02:48:26.084Z,15.84
2018-06-27T02:49:06.741Z,15.79
2018-06-27T02:49:47.445Z,15.77
2018-06-27T02:50:27.968Z,15.77
2018-06-27T02:51:08.616Z,15.77
2018-06-27T02:51:49.313Z,15.8
2018-06-27T02:52:29.899Z,15.79
2018-06-27T02:53:10.640Z,15.82
2018-06-27T02:53:51.314Z,15.82
2018-06-27T02:54:31.950Z,15.82
2018-06-27T02:55:12.537Z,15.77
2018-06-27T02:55:53.261Z,15.77
2018-06-27T02:56:33.873Z,15.83
2018-06-27T02:57:14.474Z,15.82
2018-06-27T02:57:55.020Z,15.83
2018-06-27T02:58:35.652Z,15.8
2018-06-27T02:59:16.296Z,15.88
2018-06-27T02:59:56.850Z,15.79
2018-06-27T03:00:37.444Z,15.86
2018-06-27T03:01:18.068Z,15.82
2018-06-27T03:01:58.785Z,15.9
2018-06-27T03:02:39.499Z,15.8
2018-06-27T03:03:20.196Z,15.88
2018-06-27T03:04:00.763Z,15.83
2018-06-27T03:04:41.556Z,15.84
2018-06-27T03:05:22.192Z,15.8
2018-06-27T03:06:02.796Z,15.86
2018-06-27T03:06:43.348Z,15.84
2018-06-27T03:07:23.973Z,15.83
2018-06-27T03:08:04.519Z,15.9
2018-06-27T03:08:45.144Z,15.86
2018-06-27T03:09:25.797Z,15.9
2018-06-27T03:10:06.384Z,15.91
2018-06-27T03:10:46.939Z,15.92
2018-06-27T03:11:27.550Z,15.83
2018-06-27T03:12:08.135Z,15.86
2018-06-27T03:12:48.703Z,15.86
2018-06-27T03:13:29.350Z,15.76
2018-06-27T03:14:09.907Z,15.76
2018-06-27T03:14:50.524Z,15.84
2018-06-27T03:15:31.079Z,15.76
2018-06-27T03:16:11.645Z,15.88
2018-06-27T03:16:52.191Z,15.9
2018-06-27T03:17:32.758Z,15.86
2018-06-27T03:18:13.429Z,15.83
2018-06-27T03:18:53.993Z,15.9
2018-06-27T03:19:34.548Z,15.9
2018-06-27T03:20:15.334Z,15.92
2018-06-27T03:20:55.709Z,15.9
2018-06-27T03:21:36.276Z,15.84
2018-06-27T03:22:16.910Z,15.92
2018-06-27T03:22:57.475Z,15.88
2018-06-27T03:23:38.032Z,15.84
2018-06-27T03:24:18.577Z,15.9
2018-06-27T03:24:59.131Z,15.92
2018-06-27T03:25:39.724Z,15.88
2018-06-27T03:26:20.334Z,15.95
2018-06-27T03:27:00.923Z,15.9
2018-06-27T03:27:41.507Z,15.79
2018-06-27T03:28:22.071Z,15.88
2018-06-27T03:29:02.676Z,15.88
2018-06-27T03:29:43.212Z,15.9
2018-06-27T03:30:23.794Z,15.88
2018-06-27T03:31:04.323Z,15.9
2018-06-27T03:31:44.982Z,15.92
2018-06-27T03:32:25.704Z,15.94
2018-06-27T03:33:06.301Z,15.84
2018-06-27T03:33:47.229Z,15.83
2018-06-27T03:34:27.756Z,15.9
2018-06-27T03:35:08.432Z,15.82
2018-06-27T03:35:49.398Z,15.91
2018-06-27T03:36:29.988Z,15.82
2018-06-27T03:37:10.889Z,15.95
2018-06-27T03:37:51.372Z,15.92
2018-06-27T03:38:31.986Z,15.9
2018-06-27T03:39:12.588Z,15.86
2018-06-27T03:39:53.459Z,15.82
2018-06-27T03:40:34.221Z,15.9
2018-06-27T03:41:14.793Z,15.88
2018-06-27T03:41:55.507Z,15.91
2018-06-27T03:42:36.343Z,15.92
2018-06-27T03:43:17.065Z,15.92
2018-06-27T03:43:57.618Z,15.9
2018-06-27T03:44:38.219Z,15.84
2018-06-27T03:45:18.931Z,15.9
2018-06-27T03:45:59.594Z,15.83
2018-06-27T03:46:40.222Z,15.94
2018-06-27T03:47:20.856Z,15.92
2018-06-27T03:48:01.596Z,15.94
2018-06-27T03:48:42.057Z,15.97
2018-06-27T03:49:22.639Z,15.83
2018-06-27T03:50:03.240Z,15.84
2018-06-27T03:50:43.811Z,15.82
2018-06-27T03:51:24.375Z,15.92
2018-06-27T03:52:05.034Z,15.9
2018-06-27T03:52:45.599Z,15.82
2018-06-27T03:53:26.181Z,15.92
2018-06-27T03:54:06.798Z,15.83
2018-06-27T03:54:47.426Z,15.92
2018-06-27T03:55:28.083Z,15.9
2018-06-27T03:56:08.736Z,15.97
2018-06-27T03:56:49.302Z,15.91
2018-06-27T03:57:29.869Z,15.94
2018-06-27T03:58:10.433Z,15.98
2018-06-27T03:58:51.035Z,15.94
2018-06-27T03:59:31.610Z,15.92
2018-06-27T04:00:12.207Z,15.95
2018-06-27T04:00:52.768Z,15.91
2018-06-27T04:01:33.478Z,15.88
2018-06-27T04:02:14.093Z,15.94
2018-06-27T04:02:54.695Z,15.83
2018-06-27T04:03:35.239Z,15.94
2018-06-27T04:04:15.797Z,15.94
2018-06-27T04:04:56.417Z,15.9
2018-06-27T04:05:36.973Z,15.91
2018-06-27T04:06:17.540Z,15.95
2018-06-27T04:06:58.080Z,15.92
2018-06-27T04:07:38.802Z,15.95
2018-06-27T04:08:19.350Z,15.98
2018-06-27T04:08:59.945Z,16
2018-06-27T04:09:40.477Z,15.92
2018-06-27T04:10:21.032Z,16
2018-06-27T04:11:01.692Z,15.95
2018-06-27T04:11:42.200Z,16.01
2018-06-27T04:12:22.793Z,15.98
2018-06-27T04:13:03.589Z,15.97
2018-06-27T04:13:43.987Z,16
2018-06-27T04:14:24.671Z,15.97
2018-06-27T04:15:05.284Z,15.95
2018-06-27T04:15:45.845Z,15.98
2018-06-27T04:16:26.500Z,16.04
2018-06-27T04:17:07.104Z,16.02
2018-06-27T04:17:48.714Z,15.97
2018-06-27T04:18:29.317Z,16.08
2018-06-27T04:19:09.941Z,15.97
2018-06-27T04:19:50.563Z,16.01
2018-06-27T04:20:31.136Z,16.04
2018-06-27T04:21:11.833Z,15.94
2018-06-27T04:21:52.374Z,16.01
2018-06-27T04:22:33.746Z,16.02
2018-06-27T04:23:13.753Z,16.05
2018-06-27T04:23:54.348Z,16.05
2018-06-27T04:24:34.963Z,16.09
2018-06-27T04:25:15.568Z,15.98
2018-06-27T04:25:57.151Z,16
2018-06-27T04:26:37.796Z,16.04
2018-06-27T04:27:18.407Z,16.05
2018-06-27T04:27:58.993Z,16.13
2018-06-27T04:28:39.659Z,16.13
2018-06-27T04:29:20.909Z,16.1
2018-06-27T04:30:01.913Z,16.16
2018-06-27T04:30:43.970Z,16.05
2018-06-27T04:31:25.093Z,16.12
2018-06-27T04:32:07.833Z,16.04
2018-06-27T04:32:49.820Z,16.15
2018-06-27T04:33:30.926Z,16.2
2018-06-27T04:34:12.886Z,16.15
2018-06-27T04:34:53.602Z,16.16
2018-06-27T04:35:34.433Z,16.16
2018-06-27T04:36:15.889Z,16.26
2018-06-27T04:36:56.910Z,16.26
2018-06-27T04:37:38.041Z,16.26
2018-06-27T04:38:19.403Z,16.26
2018-06-27T04:39:00.782Z,16.26
2018-06-27T04:39:41.995Z,16.21
2018-06-27T04:40:23.203Z,16.32
2018-06-27T04:41:04.760Z,16.28
2018-06-27T04:41:46.179Z,16.32
2018-06-27T04:42:27.765Z,16.33
2018-06-27T04:43:09.219Z,16.31
2018-06-27T04:43:51.032Z,16.33
2018-06-27T04:44:32.196Z,16.41
2018-06-27T04:45:16.073Z,16.41
2018-06-27T04:45:58.238Z,16.5
2018-06-27T04:46:42.719Z,16.58
2018-06-27T04:47:23.463Z,16.58
2018-06-27T04:48:07.933Z,16.64
2018-06-27T04:48:50.131Z,16.65
2018-06-27T04:49:32.400Z,16.74
2018-06-27T04:50:14.545Z,16.64
2018-06-27T04:50:55.928Z,16.79
2018-06-27T04:51:37.352Z,16.81
2018-06-27T04:52:19.436Z,16.87
2018-06-27T04:53:01.549Z,16.94
2018-06-27T04:53:50.124Z,16.83
2018-06-27T04:54:34.420Z,16.86
2018-06-27T04:55:16.683Z,16.9
2018-06-27T04:55:59.330Z,16.99
2018-06-27T04:56:40.485Z,17.02
2018-06-27T04:57:21.738Z,17.04
2018-06-27T04:58:04.043Z,17.08
2018-06-27T04:58:45.381Z,17.05
2018-06-27T04:59:27.572Z,17.11
2018-06-27T05:00:09.424Z,17.14
2018-06-27T05:00:50.818Z,17.24
2018-06-27T05:01:33.918Z,17.16
2018-06-27T05:02:15.276Z,17.19
2018-06-27T05:02:57.444Z,17.24
2018-06-27T05:03:41.479Z,17.27
2018-06-27T05:04:23.551Z,17.19
2018-06-27T05:05:04.832Z,17.33
2018-06-27T05:05:46.693Z,17.39
2018-06-27T05:06:27.915Z,17.29
2018-06-27T05:07:13.413Z,17.33
2018-06-27T05:07:58.408Z,17.38
2018-06-27T05:08:41.789Z,17.39
2018-06-27T05:09:24.937Z,17.45
2018-06-27T05:10:06.292Z,17.41
2018-06-27T05:10:47.602Z,17.44
2018-06-27T05:11:28.968Z,17.48
2018-06-27T05:12:10.985Z,17.64
2018-06-27T05:12:53.008Z,17.57
2018-06-27T05:13:34.978Z,17.6
2018-06-27T05:14:16.926Z,17.63
2018-06-27T05:14:58.950Z,17.57
2018-06-27T05:15:43.960Z,17.68
2018-06-27T05:16:26.205Z,17.72
2018-06-27T05:17:09.266Z,17.72
2018-06-27T05:17:51.553Z,17.74
2018-06-27T05:18:34.636Z,17.76
2018-06-27T05:19:17.701Z,17.79
2018-06-27T05:19:59.072Z,17.83
2018-06-27T05:20:40.391Z,17.78
2018-06-27T05:21:24.449Z,17.8
2018-06-27T05:22:06.461Z,17.72
2018-06-27T05:22:49.421Z,17.78
2018-06-27T05:23:31.488Z,17.74
2018-06-27T05:24:12.885Z,17.82
2018-06-27T05:24:55.041Z,17.9
2018-06-27T05:25:40.935Z,17.86
2018-06-27T05:26:24.922Z,17.95
2018-06-27T05:27:07.260Z,18.08
2018-06-27T05:27:49.499Z,18.22
2018-06-27T05:28:32.691Z,18.22
2018-06-27T05:29:17.241Z,18.29
2018-06-27T05:29:59.201Z,18.45
2018-06-27T05:30:41.447Z,18.41
2018-06-27T05:31:26.386Z,18.4
2018-06-27T05:32:07.790Z,18.41
2018-06-27T05:32:51.965Z,18.49
2018-06-27T05:33:35.081Z,18.6
2018-06-27T05:34:17.260Z,18.65
2018-06-27T05:34:58.582Z,18.56
2018-06-27T05:35:39.906Z,18.65
2018-06-27T05:36:23.220Z,18.58
2018-06-27T05:37:04.573Z,18.7
2018-06-27T05:37:47.465Z,18.7
2018-06-27T05:38:30.394Z,18.75
2018-06-27T05:39:12.702Z,18.81
2018-06-27T05:39:54.034Z,18.89
2018-06-27T05:40:36.225Z,18.86
2018-06-27T05:41:17.605Z,18.84
2018-06-27T05:41:59.541Z,19.11
2018-06-27T05:42:41.703Z,18.98
2018-06-27T05:43:24.980Z,19.15
2018-06-27T05:44:06.343Z,19.15
2018-06-27T05:44:47.727Z,19.37
2018-06-27T05:45:29.144Z,19.37
2018-06-27T05:46:13.281Z,19.59
2018-06-27T05:46:55.532Z,19.66
2018-06-27T05:47:36.841Z,19.7
2018-06-27T05:48:19.679Z,19.77
2018-06-27T05:49:01.381Z,19.89
2018-06-27T05:49:42.799Z,19.96
2018-06-27T05:50:26.707Z,19.96
2018-06-27T05:51:10.199Z,20.11
2018-06-27T05:51:58.462Z,20.1
2018-06-27T05:52:40.753Z,20.26
2018-06-27T05:53:22.122Z,20.32
2018-06-27T05:54:04.043Z,20.32
2018-06-27T05:54:45.417Z,20.36
2018-06-27T05:55:28.713Z,20.48
2018-06-27T05:56:11.703Z,20.44
2018-06-27T05:56:53.135Z,20.52
2018-06-27T05:57:37.443Z,20.63
2018-06-27T05:58:20.530Z,20.6
2018-06-27T05:59:03.441Z,20.74
2018-06-27T05:59:46.522Z,20.78
2018-06-27T06:00:28.824Z,20.74
2018-06-27T06:01:10.281Z,20.81
2018-06-27T06:01:52.269Z,20.88
2018-06-27T06:02:33.646Z,20.93
2018-06-27T06:03:17.063Z,20.95
2018-06-27T06:03:58.717Z,21.07
2018-06-27T06:04:41.746Z,21.11
2018-06-27T06:05:23.761Z,21.21
2018-06-27T06:06:06.555Z,21.32
2018-06-27T06:06:48.716Z,21.33
2018-06-27T06:07:30.064Z,21.4
2018-06-27T06:08:11.990Z,21.37
2018-06-27T06:08:53.269Z,21.35
2018-06-27T06:09:35.287Z,21.4
2018-06-27T06:10:17.459Z,21.37
2018-06-27T06:10:59.453Z,21.42
2018-06-27T06:11:40.869Z,21.43
2018-06-27T06:12:23.268Z,21.37
2018-06-27T06:13:04.704Z,21.35
2018-06-27T06:13:47.985Z,21.51
2018-06-27T06:14:31.480Z,21.51
2018-06-27T06:15:15.478Z,21.66
2018-06-27T06:15:57.456Z,21.62
2018-06-27T06:16:39.542Z,21.69
2018-06-27T06:17:25.450Z,21.76
2018-06-27T06:18:06.706Z,21.79
2018-06-27T06:18:49.631Z,21.82
2018-06-27T06:19:31.602Z,21.85
2018-06-27T06:20:13.917Z,21.91
2018-06-27T06:20:59.023Z,21.95
2018-06-27T06:21:46.754Z,22
2018-06-27T06:22:30.993Z,22.02
2018-06-27T06:23:13.141Z,22.17
2018-06-27T06:23:56.798Z,22.29
2018-06-27T06:24:38.717Z,22.3
2018-06-27T06:25:20.798Z,22.22
2018-06-27T06:26:02.963Z,22.23
2018-06-27T06:26:44.965Z,22.35
2018-06-27T06:27:26.340Z,22.22
2018-06-27T06:28:08.478Z,22.35
2018-06-27T06:28:49.860Z,22.39
2018-06-27T06:29:33.308Z,22.35
2018-06-27T06:30:15.463Z,22.43
2018-06-27T06:30:56.761Z,22.44
2018-06-27T06:31:38.813Z,22.44
2018-06-27T06:32:23.327Z,22.39
2018-06-27T06:33:06.506Z,22.44
2018-06-27T06:33:49.446Z,22.41
2018-06-27T06:34:34.334Z,22.5
2018-06-27T06:35:16.551Z,22.51
2018-06-27T06:35:57.906Z,22.44
2018-06-27T06:36:43.485Z,22.53
2018-06-27T06:37:24.951Z,22.5
2018-06-27T06:38:07.982Z,22.59
2018-06-27T06:38:51.062Z,22.6
2018-06-27T06:39:32.428Z,22.66
2018-06-27T06:40:13.805Z,22.55
2018-06-27T06:40:56.958Z,22.63
2018-06-27T06:41:38.283Z,22.66
2018-06-27T06:42:19.672Z,22.66
2018-06-27T06:43:02.502Z,22.62
2018-06-27T06:43:43.687Z,22.75
2018-06-27T06:44:25.742Z,22.69
2018-06-27T06:45:06.911Z,22.8
2018-06-27T06:45:48.292Z,22.8
2018-06-27T06:46:29.777Z,22.81
2018-06-27T06:47:12.789Z,22.85
2018-06-27T06:47:57.091Z,22.88
2018-06-27T06:48:40.868Z,22.99
2018-06-27T06:49:23.469Z,23
2018-06-27T06:50:06.590Z,23.02
2018-06-27T06:50:49.517Z,22.94
2018-06-27T06:51:32.482Z,23
2018-06-27T06:52:13.970Z,22.99
2018-06-27T06:52:57.989Z,23.05
2018-06-27T06:53:41.513Z,23.03
2018-06-27T06:54:25.508Z,23.03
2018-06-27T06:55:09.825Z,23.02
2018-06-27T06:55:54.167Z,23.02
2018-06-27T06:56:37.042Z,23.03
2018-06-27T06:57:20.246Z,22.96
2018-06-27T06:58:04.406Z,23.02
2018-06-27T06:58:46.540Z,23.09
2018-06-27T06:59:29.801Z,23.09
2018-06-27T07:00:11.146Z,23.12
2018-06-27T07:00:52.538Z,23.12
2018-06-27T07:01:34.557Z,23.17
2018-06-27T07:02:16.025Z,23.06
2018-06-27T07:02:58.990Z,22.99
2018-06-27T07:03:42.101Z,23.08
2018-06-27T07:04:23.463Z,22.94
2018-06-27T07:05:05.499Z,22.94
2018-06-27T07:05:46.864Z,22.9
2018-06-27T07:06:31.488Z,22.76
2018-06-27T07:07:12.871Z,22.85
2018-06-27T07:07:55.017Z,22.83
2018-06-27T07:08:36.369Z,22.88
2018-06-27T07:09:18.523Z,22.91
2018-06-27T07:10:00.790Z,22.83
2018-06-27T07:10:42.982Z,22.83
2018-06-27T07:11:24.250Z,22.81
2018-06-27T07:12:06.553Z,22.78
2018-06-27T07:12:48.588Z,22.85
2018-06-27T07:13:29.950Z,22.76
2018-06-27T07:14:12.197Z,22.8
2018-06-27T07:14:53.477Z,22.93
2018-06-27T07:15:34.821Z,22.91
2018-06-27T07:16:16.818Z,22.98
2018-06-27T07:16:58.231Z,22.94
2018-06-27T07:17:40.315Z,23.09
2018-06-27T07:18:21.658Z,23.08
2018-06-27T07:19:03.753Z,23.09
2018-06-27T07:19:45.092Z,23.17
2018-06-27T07:20:26.449Z,23.2
2018-06-27T07:21:09.567Z,23.28
2018-06-27T07:21:50.995Z,23.31
2018-06-27T07:22:32.369Z,23.47
2018-06-27T07:23:13.684Z,23.41
2018-06-27T07:23:55.781Z,23.48
2018-06-27T07:24:37.090Z,23.47
2018-06-27T07:25:21.565Z,23.56
2018-06-27T07:26:05.801Z,23.5
2018-06-27T07:26:48.021Z,23.61
2018-06-27T07:27:32.005Z,23.51
2018-06-27T07:28:14.130Z,23.55
2018-06-27T07:28:56.299Z,23.55
2018-06-27T07:29:37.680Z,23.55
2018-06-27T07:30:19.520Z,23.59
2018-06-27T07:31:04.502Z,23.55
2018-06-27T07:31:46.566Z,23.55
2018-06-27T07:32:28.864Z,23.48
2018-06-27T07:33:12.532Z,23.58
2018-06-27T07:33:59.232Z,23.48
2018-06-27T07:34:40.584Z,23.47
2018-06-27T07:35:22.778Z,23.48
2018-06-27T07:36:05.211Z,23.4
2018-06-27T07:36:47.089Z,23.43
2018-06-27T07:37:28.463Z,23.46
2018-06-27T07:38:10.522Z,23.28
2018-06-27T07:38:51.953Z,23.36
2018-06-27T07:39:33.533Z,23.36
2018-06-27T07:40:16.545Z,23.37
2018-06-27T07:40:57.940Z,23.31
2018-06-27T07:41:39.987Z,23.39
2018-06-27T07:42:22.144Z,23.34
2018-06-27T07:43:03.534Z,23.36
2018-06-27T07:43:44.926Z,23.47
2018-06-27T07:44:27.076Z,23.4
2018-06-27T07:45:09.284Z,23.54
2018-06-27T07:45:50.602Z,23.54
2018-06-27T07:46:31.981Z,23.51
2018-06-27T07:47:15.004Z,23.58
2018-06-27T07:47:58.068Z,23.65
2018-06-27T07:48:40.033Z,23.73
2018-06-27T07:49:21.353Z,23.68
2018-06-27T07:50:02.674Z,23.76
2018-06-27T07:50:44.117Z,23.73
2018-06-27T07:51:26.300Z,23.62
2018-06-27T07:52:08.526Z,23.58
2018-06-27T07:52:49.739Z,23.44
2018-06-27T07:53:31.106Z,23.37
2018-06-27T07:54:12.397Z,23.17
2018-06-27T07:54:55.653Z,23.09
2018-06-27T07:55:36.952Z,23.05
2018-06-27T07:56:20.071Z,22.91
2018-06-27T07:57:03.043Z,22.9
2018-06-27T07:57:46.307Z,22.91
2018-06-27T07:58:27.673Z,22.8
2018-06-27T07:59:11.547Z,22.87
2018-06-27T07:59:52.896Z,22.8
2018-06-27T08:00:35.044Z,22.88
2018-06-27T08:01:18.025Z,22.9
2018-06-27T08:01:59.332Z,22.85
2018-06-27T08:02:40.720Z,22.88
2018-06-27T08:03:22.089Z,22.83
2018-06-27T08:04:04.534Z,22.78
2018-06-27T08:04:47.573Z,22.78
2018-06-27T08:05:29.543Z,22.7
2018-06-27T08:06:11.828Z,22.66
2018-06-27T08:06:54.807Z,22.59
2018-06-27T08:07:37.178Z,22.66
2018-06-27T08:08:18.445Z,22.59
2018-06-27T08:09:00.547Z,22.73
2018-06-27T08:09:44.319Z,22.54
2018-06-27T08:10:25.636Z,22.65
2018-06-27T08:11:09.728Z,22.57
2018-06-27T08:11:51.652Z,22.54
2018-06-27T08:12:33.581Z,22.5
2018-06-27T08:13:14.976Z,22.48
2018-06-27T08:13:56.349Z,22.53
2018-06-27T08:14:39.262Z,22.63
2018-06-27T08:15:21.555Z,22.7
2018-06-27T08:16:03.774Z,22.83
2018-06-27T08:16:45.266Z,22.84
2018-06-27T08:17:26.393Z,22.88
2018-06-27T08:18:07.747Z,23.09
2018-06-27T08:18:50.057Z,23.23
2018-06-27T08:19:31.379Z,23.37
2018-06-27T08:20:12.706Z,23.37
2018-06-27T08:20:53.992Z,23.51
2018-06-27T08:21:36.163Z,23.51
2018-06-27T08:22:17.430Z,23.59
2018-06-27T08:22:58.715Z,23.58
2018-06-27T08:23:40.017Z,23.59
2018-06-27T08:24:21.318Z,23.65
2018-06-27T08:25:03.305Z,23.76
2018-06-27T08:25:44.671Z,23.74
2018-06-27T08:26:26.807Z,23.78
2018-06-27T08:27:08.609Z,23.76
2018-06-27T08:27:49.904Z,23.78
2018-06-27T08:28:32.165Z,23.83
2018-06-27T08:29:14.067Z,23.84
2018-06-27T08:29:55.349Z,23.81
2018-06-27T08:30:38.543Z,23.93
2018-06-27T08:31:19.951Z,23.83
2018-06-27T08:32:04.067Z,23.91
2018-06-27T08:32:46.051Z,23.95
2018-06-27T08:33:27.400Z,23.95
2018-06-27T08:34:10.882Z,23.99
2018-06-27T08:34:55.572Z,23.92
2018-06-27T08:35:36.991Z,24.01
2018-06-27T08:36:19.543Z,24.03
2018-06-27T08:37:01.688Z,24.01
2018-06-27T08:37:43.117Z,23.99
2018-06-27T08:38:25.282Z,24.06
2018-06-27T08:39:07.068Z,24.11
2018-06-27T08:39:48.457Z,24.13
2018-06-27T08:40:29.713Z,24.1
2018-06-27T08:41:12.102Z,24.13
2018-06-27T08:41:54.448Z,24.08
2018-06-27T08:42:36.490Z,24.08
2018-06-27T08:43:17.818Z,24.1
2018-06-27T08:44:00.883Z,24.03
2018-06-27T08:44:42.997Z,24.08
2018-06-27T08:45:24.483Z,24.1
2018-06-27T08:46:07.367Z,24.03
2018-06-27T08:46:49.674Z,24.11
2018-06-27T08:47:31.030Z,24.01
2018-06-27T08:48:12.281Z,24.1
2018-06-27T08:48:55.927Z,24.03
2018-06-27T08:49:37.217Z,23.96
2018-06-27T08:50:18.601Z,23.92
2018-06-27T08:50:59.919Z,23.86
2018-06-27T08:51:41.181Z,23.74
2018-06-27T08:52:23.314Z,23.61
2018-06-27T08:53:07.528Z,23.48
2018-06-27T08:53:48.904Z,23.48
2018-06-27T08:54:30.126Z,23.5
2018-06-27T08:55:12.101Z,23.48
2018-06-27T08:55:54.192Z,23.51
2018-06-27T08:56:37.769Z,23.51